Time;durP1;ratioP1;P1;durP2;ratioP2;P2;SDS_P1;SDS_P2;PMS_P1;PMS_P2;Temp;Humidity;BMP_temperature;BMP_pressure;BME280_temperature;BME280_humidity;BME280_pressure;Samples;Min_cycle;Max_cycle;Signal;HPM_P1;HPM_P2
2022/04/24 00:01:03;;;;;;;;;;;;;;;12.30;61.59;100190.56;4424055;32;19997;-69
2022/04/24 00:03:29;;;;;;;;;;;;;;;12.24;62.01;100189.59;4422386;32;19968;-69
2022/04/24 00:05:54;;;;;;;;;;;;;;;12.36;61.53;100187.94;4420938;32;20017;-69
2022/04/24 00:08:19;;;;;;;;;;;;;;;12.36;61.32;100190.75;4421228;32;19949;-69
2022/04/24 00:10:45;;;;;;;;;;;;;;;12.45;61.18;100185.16;4423255;32;19969;-69
2022/04/24 00:13:11;;;;;;;;;;;;;;;12.29;61.80;100194.66;4418446;32;20042;-69
2022/04/24 00:15:39;;;;;;;;;;;;;;;12.29;61.55;100189.00;4401950;32;20087;-69
2022/04/24 00:18:05;;;;;;;;;;;;;;;12.33;61.46;100194.50;4419248;32;19982;-69
2022/04/24 00:20:30;;;;;;;;;;;;;;;12.27;61.38;100188.66;4420672;32;20297;-69
2022/04/24 00:22:56;;;;;;;;;;;;;;;12.17;61.95;100189.87;4423152;32;20039;-69
2022/04/24 00:25:22;;;;;;;;;;;;;;;12.17;62.16;100192.69;4423437;32;20001;-69
2022/04/24 00:27:47;;;;;;;;;;;;;;;12.03;62.70;100190.44;4420193;32;19990;-69
2022/04/24 00:30:12;;;;;;;;;;;;;;;12.16;62.34;100195.97;4423224;32;20008;-69
2022/04/24 00:32:38;;;;;;;;;;;;;;;11.90;63.03;100190.53;4421295;32;19946;-69
2022/04/24 00:35:05;;;;;;;;;;;;;;;12.05;62.69;100194.38;4421728;32;19971;-69
2022/04/24 00:37:31;;;;;;;;;;;;;;;11.89;62.79;100196.63;4423909;32;19992;-69
2022/04/24 00:39:56;;;;;;;;;;;;;;;11.90;63.33;100201.00;4417066;32;19983;-69
2022/04/24 00:42:22;;;;;;;;;;;;;;;11.89;63.14;100202.25;4421012;32;21161;-69
2022/04/24 00:44:47;;;;;;;;;;;;;;;12.03;62.38;100199.69;4417045;32;20012;-69
2022/04/24 00:47:16;;;;;;;;;;;;;;;11.88;62.89;100197.88;4419685;32;20300;-69
2022/04/24 00:49:43;;;;;;;;;;;;;;;11.94;62.82;100201.69;4417105;32;21217;-69
2022/04/24 00:52:09;;;;;;;;;;;;;;;12.18;62.24;100204.78;4427710;32;19961;-69
2022/04/24 00:54:36;;;;;;;;;;;;;;;11.81;63.31;100193.28;4420254;32;19945;-69
2022/04/24 00:57:02;;;;;;;;;;;;;;;11.80;63.45;100199.38;4422692;32;20004;-69
2022/04/24 00:59:27;;;;;;;;;;;;;;;11.89;63.08;100196.63;4417316;32;20272;-69
2022/04/24 01:01:53;;;;;;;;;;;;;;;11.88;63.40;100197.88;4419195;32;20008;-69
2022/04/24 01:04:18;;;;;;;;;;;;;;;12.14;62.62;100196.44;4421705;32;19937;-69
2022/04/24 01:06:44;;;;;;;;;;;;;;;11.96;62.77;100204.81;4424005;32;20328;-69
2022/04/24 01:09:11;;;;;;;;;;;;;;;11.77;63.19;100203.13;4418356;32;19972;-69
2022/04/24 01:11:37;;;;;;;;;;;;;;;11.93;62.78;100200.09;4423950;32;19985;-69
2022/04/24 01:14:04;;;;;;;;;;;;;;;12.20;61.92;100210.72;4421731;32;20310;-69
2022/04/24 01:16:30;;;;;;;;;;;;;;;12.35;61.45;100209.72;4421316;32;20032;-69
2022/04/24 01:18:56;;;;;;;;;;;;;;;12.41;60.90;100213.50;4426578;32;19953;-69
2022/04/24 01:21:22;;;;;;;;;;;;;;;12.37;61.19;100215.69;4418521;32;20370;-69
2022/04/24 01:23:47;;;;;;;;;;;;;;;11.87;62.63;100210.37;4421717;32;19999;-69
2022/04/24 01:26:13;;;;;;;;;;;;;;;11.73;62.92;100214.50;4420908;32;19996;-69
2022/04/24 01:28:39;;;;;;;;;;;;;;;11.80;63.10;100216.28;4422011;32;20052;-69
2022/04/24 01:31:05;;;;;;;;;;;;;;;11.81;63.14;100204.56;4400985;32;20089;-69
2022/04/24 01:33:31;;;;;;;;;;;;;;;11.87;62.78;100210.37;4422711;32;19988;-69
2022/04/24 01:35:57;;;;;;;;;;;;;;;12.03;62.24;100201.72;4422543;32;19961;-69
2022/04/24 01:38:22;;;;;;;;;;;;;;;12.01;62.23;100207.03;4420178;32;20038;-69
2022/04/24 01:40:48;;;;;;;;;;;;;;;12.09;61.90;100211.16;4415585;32;20314;-69
2022/04/24 01:43:13;;;;;;;;;;;;;;;12.10;62.02;100207.84;4416139;32;19954;-69
2022/04/24 01:45:39;;;;;;;;;;;;;;;12.11;62.23;100214.28;4421192;32;20615;-69
2022/04/24 01:48:05;;;;;;;;;;;;;;;12.50;60.96;100213.56;4419667;32;20263;-69
2022/04/24 01:50:30;;;;;;;;;;;;;;;12.50;60.23;100219.19;4422145;32;20379;-69
2022/04/24 01:52:56;;;;;;;;;;;;;;;12.52;59.46;100218.72;4408214;32;20251;-69
2022/04/24 01:55:21;;;;;;;;;;;;;;;12.10;61.89;100215.56;4418495;32;20461;-69
2022/04/24 01:57:47;;;;;;;;;;;;;;;12.51;60.34;100220.75;4417527;32;20020;-69
2022/04/24 02:00:13;;;;;;;;;;;;;;;12.85;59.08;100211.28;4420886;32;20015;-69
2022/04/24 02:02:38;;;;;;;;;;;;;;;13.00;58.92;100215.12;4422574;32;19997;-69
2022/04/24 02:05:04;;;;;;;;;;;;;;;13.00;58.59;100218.75;4417979;32;20316;-69
2022/04/24 02:07:30;;;;;;;;;;;;;;;12.97;58.88;100221.69;4421155;32;20001;-69
2022/04/24 02:09:55;;;;;;;;;;;;;;;12.94;58.87;100223.41;4420447;32;20601;-69
2022/04/24 02:12:21;;;;;;;;;;;;;;;13.00;58.60;100217.94;4419944;32;20334;-69
2022/04/24 02:14:46;;;;;;;;;;;;;;;12.49;60.20;100217.59;4420668;32;20133;-69
2022/04/24 02:17:12;;;;;;;;;;;;;;;12.33;61.00;100219.91;4407998;32;20046;-69
2022/04/24 02:19:37;;;;;;;;;;;;;;;12.31;60.57;100222.38;4421461;32;20323;-69
2022/04/24 02:22:03;;;;;;;;;;;;;;;12.25;60.81;100219.41;4423179;32;20409;-69
2022/04/24 02:24:29;;;;;;;;;;;;;;;12.09;61.57;100223.22;4424602;32;19994;-69
2022/04/24 02:26:54;;;;;;;;;;;;;;;12.07;61.59;100214.44;4422479;32;19945;-69
2022/04/24 02:29:20;;;;;;;;;;;;;;;12.03;61.79;100218.66;4428206;32;19984;-69
2022/04/24 02:31:46;;;;;;;;;;;;;;;12.06;61.52;100204.41;4418801;32;19989;-69
2022/04/24 02:34:12;;;;;;;;;;;;;;;12.00;61.85;100213.94;4419460;32;20007;-69
2022/04/24 02:36:37;;;;;;;;;;;;;;;11.95;61.83;100209.66;4426763;32;20363;-69
2022/04/24 02:39:02;;;;;;;;;;;;;;;12.10;61.43;100216.31;4426250;32;19973;-69
2022/04/24 02:41:28;;;;;;;;;;;;;;;12.00;61.69;100211.88;4423744;32;20021;-69
2022/04/24 02:43:53;;;;;;;;;;;;;;;11.80;62.37;100210.66;4419860;32;20256;-69
2022/04/24 02:46:19;;;;;;;;;;;;;;;12.19;61.31;100211.97;4420298;32;19993;-69
2022/04/24 02:48:45;;;;;;;;;;;;;;;11.71;62.46;100213.41;4421082;32;19990;-69
2022/04/24 02:51:10;;;;;;;;;;;;;;;11.70;62.57;100215.47;4418442;32;19967;-69
2022/04/24 02:53:36;;;;;;;;;;;;;;;11.76;62.69;100210.00;4421596;32;20077;-69
2022/04/24 02:56:01;;;;;;;;;;;;;;;11.44;63.33;100211.13;4419330;32;20018;-69
2022/04/24 02:58:27;;;;;;;;;;;;;;;11.61;62.79;100221.00;4423183;32;19989;-69
2022/04/24 03:00:54;;;;;;;;;;;;;;;11.60;62.50;100221.44;4418044;32;20042;-69
2022/04/24 03:03:20;;;;;;;;;;;;;;;11.77;61.86;100225.66;4419136;32;19965;-69
2022/04/24 03:05:46;;;;;;;;;;;;;;;11.64;62.66;100228.56;4419639;32;19960;-69
2022/04/24 03:08:11;;;;;;;;;;;;;;;11.71;62.70;100227.50;4419766;32;19950;-69
2022/04/24 03:10:38;;;;;;;;;;;;;;;11.73;62.40;100225.03;4422200;32;19972;-69
2022/04/24 03:13:04;;;;;;;;;;;;;;;11.80;62.42;100227.56;4419365;32;20361;-69
2022/04/24 03:15:29;;;;;;;;;;;;;;;11.59;62.57;100226.28;4420661;32;19989;-69
2022/04/24 03:17:54;;;;;;;;;;;;;;;12.41;60.53;100232.47;4423779;32;19954;-69
2022/04/24 03:20:21;;;;;;;;;;;;;;;12.19;60.22;100232.53;4421178;32;19968;-69
2022/04/24 03:22:46;;;;;;;;;;;;;;;12.51;59.86;100236.91;4419002;32;20302;-69
2022/04/24 03:25:12;;;;;;;;;;;;;;;12.76;59.27;100243.13;4424191;32;19976;-69
2022/04/24 03:27:38;;;;;;;;;;;;;;;12.75;59.11;100240.75;4417950;32;19960;-69
2022/04/24 03:30:04;;;;;;;;;;;;;;;12.75;59.14;100235.12;4421353;32;19957;-69
2022/04/24 03:32:31;;;;;;;;;;;;;;;12.86;58.86;100244.72;4419966;32;20334;-69
2022/04/24 03:34:57;;;;;;;;;;;;;;;12.73;58.88;100237.63;4421195;32;19946;-69
2022/04/24 03:37:23;;;;;;;;;;;;;;;12.88;58.62;100241.41;4421750;32;20021;-69
2022/04/24 03:39:48;;;;;;;;;;;;;;;12.99;58.45;100248.25;4418530;32;19970;-69
2022/04/24 03:42:14;;;;;;;;;;;;;;;12.22;60.78;100239.28;4421251;32;19997;-69
2022/04/24 03:44:39;;;;;;;;;;;;;;;12.22;60.55;100239.28;4420137;32;20000;-69
2022/04/24 03:47:06;;;;;;;;;;;;;;;12.20;61.05;100234.09;4421179;32;20435;-69
2022/04/24 03:49:32;;;;;;;;;;;;;;;12.16;60.38;100235.47;4419306;32;19965;-69
2022/04/24 03:51:57;;;;;;;;;;;;;;;12.17;61.62;100231.41;4418667;32;19997;-69
2022/04/24 03:54:24;;;;;;;;;;;;;;;12.17;61.22;100229.38;4420362;32;19957;-69
2022/04/24 03:56:49;;;;;;;;;;;;;;;12.24;61.05;100229.09;4421698;32;20035;-69
2022/04/24 03:59:15;;;;;;;;;;;;;;;12.19;60.91;100241.00;4417821;32;19957;-69
2022/04/24 04:01:41;;;;;;;;;;;;;;;12.19;61.21;100235.34;4421660;32;20030;-69
2022/04/24 04:04:07;;;;;;;;;;;;;;;12.20;60.82;100238.94;4418590;32;19970;-69
2022/04/24 04:06:32;;;;;;;;;;;;;;;12.21;60.81;100230.00;4419843;32;20041;-69
2022/04/24 04:08:58;;;;;;;;;;;;;;;12.20;61.16;100236.13;4425693;32;20226;-69
2022/04/24 04:11:26;;;;;;;;;;;;;;;12.72;59.64;100239.66;4418689;32;19965;-69
2022/04/24 04:13:52;;;;;;;;;;;;;;;12.23;60.63;100238.81;4418380;32;20345;-69
2022/04/24 04:16:17;;;;;;;;;;;;;;;12.04;61.44;100239.94;4419770;32;20424;-69
2022/04/24 04:18:43;;;;;;;;;;;;;;;13.10;58.04;100247.81;4418180;32;20009;-69
2022/04/24 04:21:09;;;;;;;;;;;;;;;12.97;58.50;100241.44;4420699;32;20382;-69
2022/04/24 04:23:34;;;;;;;;;;;;;;;12.58;59.04;100240.22;4419229;32;20011;-69
2022/04/24 04:26:00;;;;;;;;;;;;;;;12.49;60.53;100242.22;4420039;32;20401;-69
2022/04/24 04:28:25;;;;;;;;;;;;;;;12.90;58.63;100242.56;4423715;32;20415;-69
2022/04/24 04:30:51;;;;;;;;;;;;;;;12.38;60.10;100244.69;4419738;32;19987;-69
2022/04/24 04:33:17;;;;;;;;;;;;;;;12.17;60.85;100235.00;4418618;32;19993;-69
2022/04/24 04:35:43;;;;;;;;;;;;;;;12.17;60.58;100235.00;4421266;32;19985;-69
2022/04/24 04:38:08;;;;;;;;;;;;;;;12.85;58.73;100243.16;4422160;32;20397;-69
2022/04/24 04:40:34;;;;;;;;;;;;;;;12.70;58.63;100241.38;4419728;32;20092;-69
2022/04/24 04:42:59;;;;;;;;;;;;;;;13.16;57.72;100245.94;4421197;32;20357;-69
2022/04/24 04:45:25;;;;;;;;;;;;;;;13.16;56.94;100245.94;4417341;32;20264;-69
2022/04/24 04:47:51;;;;;;;;;;;;;;;13.35;56.68;100239.81;4417375;32;19980;-69
2022/04/24 04:50:17;;;;;;;;;;;;;;;13.11;57.32;100249.38;4419088;32;19985;-69
2022/04/24 04:52:43;;;;;;;;;;;;;;;13.22;57.18;100249.69;4420429;32;20015;-69
2022/04/24 04:55:09;;;;;;;;;;;;;;;12.51;58.63;100248.19;4417647;32;19953;-69
2022/04/24 04:57:35;;;;;;;;;;;;;;;12.17;60.46;100242.69;4420211;32;19952;-69
2022/04/24 05:00:05;;;;;;;;;;;;;;;12.53;59.30;100254.16;4419578;32;20615;-69
2022/04/24 05:02:31;;;;;;;;;;;;;;;12.63;59.10;100258.59;4416953;32;20378;-69
2022/04/24 05:04:58;;;;;;;;;;;;;;;12.59;59.11;100258.75;4420671;32;20237;-69
2022/04/24 05:07:24;;;;;;;;;;;;;;;12.52;59.42;100261.84;4420041;32;19968;-69
2022/04/24 05:09:51;;;;;;;;;;;;;;;12.11;60.88;100259.41;4419787;32;20345;-69
2022/04/24 05:12:16;;;;;;;;;;;;;;;12.65;59.08;100259.72;4420785;32;19953;-69
2022/04/24 05:14:41;;;;;;;;;;;;;;;12.10;60.85;100267.09;4416900;32;19964;-69
2022/04/24 05:17:08;;;;;;;;;;;;;;;12.05;60.69;100264.88;4419735;32;19957;-69
2022/04/24 05:19:34;;;;;;;;;;;;;;;12.71;58.66;100271.97;4419784;32;19956;-69
2022/04/24 05:21:59;;;;;;;;;;;;;;;12.85;58.39;100274.22;4416468;32;20017;-69
2022/04/24 05:24:25;;;;;;;;;;;;;;;12.87;58.57;100271.72;4420768;32;20588;-69
2022/04/24 05:26:51;;;;;;;;;;;;;;;12.37;60.11;100279.78;4416259;32;20311;-69
2022/04/24 05:29:17;;;;;;;;;;;;;;;12.28;59.87;100274.91;4418869;32;20288;-69
2022/04/24 05:31:42;;;;;;;;;;;;;;;12.82;58.70;100275.16;4418898;32;20072;-69
2022/04/24 05:34:08;;;;;;;;;;;;;;;12.67;58.89;100279.03;4416936;32;19972;-69
2022/04/24 05:36:33;;;;;;;;;;;;;;;12.39;59.81;100283.72;4421231;32;20308;-69
2022/04/24 05:38:59;;;;;;;;;;;;;;;12.52;59.52;100281.59;4421514;32;19997;-69
2022/04/24 05:41:25;;;;;;;;;;;;;;;12.41;60.12;100292.53;4420971;32;20292;-69
2022/04/24 05:43:50;;;;;;;;;;;;;;;12.38;59.94;100287.00;4420035;32;19962;-69
2022/04/24 05:46:15;;;;;;;;;;;;;;;12.54;59.86;100286.78;4421106;32;20104;-69
2022/04/24 05:48:41;;;;;;;;;;;;;;;12.95;58.20;100292.75;4420472;32;19953;-69
2022/04/24 05:51:07;;;;;;;;;;;;;;;13.03;57.97;100302.56;4425186;32;19993;-69
2022/04/24 05:53:32;;;;;;;;;;;;;;;13.00;57.86;100303.47;4423453;32;20745;-69
2022/04/24 05:55:58;;;;;;;;;;;;;;;13.15;57.72;100301.66;4421586;32;19964;-69
2022/04/24 05:58:23;;;;;;;;;;;;;;;13.45;56.13;100305.63;4421326;32;19972;-69
2022/04/24 06:00:49;;;;;;;;;;;;;;;13.26;56.79;100306.88;4422198;32;19954;-69
2022/04/24 06:03:15;;;;;;;;;;;;;;;13.39;56.58;100301.84;4419713;32;19950;-69
2022/04/24 06:05:40;;;;;;;;;;;;;;;13.39;57.33;100302.66;4422901;32;20343;-69
2022/04/24 06:08:06;;;;;;;;;;;;;;;12.83;58.75;100307.78;4418637;32;19993;-69
2022/04/24 06:10:32;;;;;;;;;;;;;;;12.77;59.14;100308.84;4425604;32;20484;-69
2022/04/24 06:12:58;;;;;;;;;;;;;;;12.81;59.38;100299.00;4423836;32;20016;-69
2022/04/24 06:15:24;;;;;;;;;;;;;;;12.93;58.77;100305.78;4419163;32;20091;-69
2022/04/24 06:17:51;;;;;;;;;;;;;;;12.80;58.94;100302.28;4422617;32;19975;-69
2022/04/24 06:20:17;;;;;;;;;;;;;;;12.93;59.27;100297.31;4423822;32;20008;-69
2022/04/24 06:25:19;;;;;;;;;;;;;;;13.73;57.53;100316.53;3951399;32;15852603;-69
2022/04/24 06:27:45;;;;;;;;;;;;;;;13.73;57.53;100316.53;4426038;32;20074;-69
2022/04/24 06:30:11;;;;;;;;;;;;;;;13.29;58.02;100309.53;4428263;32;20295;-69
2022/04/24 06:32:39;;;;;;;;;;;;;;;13.34;57.76;100311.75;4427519;32;20310;-69
2022/04/24 06:35:05;;;;;;;;;;;;;;;13.47;57.60;100312.38;4430945;32;19971;-69
2022/04/24 06:37:30;;;;;;;;;;;;;;;13.40;57.54;100309.06;4429880;32;20296;-69
2022/04/24 06:39:56;;;;;;;;;;;;;;;13.07;59.09;100314.50;4429930;32;20519;-69
2022/04/24 06:42:22;;;;;;;;;;;;;;;13.43;58.08;100316.62;4428888;32;19997;-69
2022/04/24 06:44:48;;;;;;;;;;;;;;;13.46;57.63;100327.00;4429389;32;20331;-69
2022/04/24 06:47:13;;;;;;;;;;;;;;;13.70;57.25;100319.50;4428181;32;19993;-69
2022/04/24 06:49:39;;;;;;;;;;;;;;;13.78;56.83;100309.47;4429323;32;19962;-69
2022/04/24 06:52:05;;;;;;;;;;;;;;;13.46;58.06;100319.31;4427662;32;20275;-69
2022/04/24 06:54:30;;;;;;;;;;;;;;;13.82;57.26;100321.38;4431550;32;19981;-69
2022/04/24 06:57:01;;;;;;;;;;;;;;;13.87;56.93;100321.53;4428763;32;20026;-69
2022/04/24 06:59:27;;;;;;;;;;;;;;;13.80;57.10;100324.69;4432243;32;19964;-69
2022/04/24 07:01:53;;;;;;;;;;;;;;;14.04;55.71;100317.16;4428302;32;20328;-69
2022/04/24 07:04:19;;;;;;;;;;;;;;;13.96;56.35;100323.56;4424954;32;20015;-69
2022/04/24 07:06:44;;;;;;;;;;;;;;;14.16;55.96;100323.88;4427899;32;19993;-69
2022/04/24 07:09:10;;;;;;;;;;;;;;;14.38;54.64;100333.00;4426901;32;20324;-69
2022/04/24 07:11:36;;;;;;;;;;;;;;;14.37;55.37;100333.47;4424927;32;20028;-69
2022/04/24 07:14:02;;;;;;;;;;;;;;;14.56;54.65;100340.69;4426509;32;20077;-69
2022/04/24 07:16:27;;;;;;;;;;;;;;;14.60;54.47;100319.44;4428109;32;21046;-69
2022/04/24 07:18:54;;;;;;;;;;;;;;;14.64;54.60;100339.91;4428230;32;20000;-69
2022/04/24 07:21:19;;;;;;;;;;;;;;;14.34;55.35;100343.72;4425694;32;19994;-69
2022/04/24 07:23:45;;;;;;;;;;;;;;;14.37;54.81;100341.97;4433321;32;19957;-69
2022/04/24 07:26:10;;;;;;;;;;;;;;;14.43;54.79;100345.75;4428058;32;19953;-69
2022/04/24 07:28:36;;;;;;;;;;;;;;;14.62;54.85;100345.25;4427440;32;19986;-69
2022/04/24 07:31:02;;;;;;;;;;;;;;;14.70;54.24;100337.97;4427089;32;20003;-69
2022/04/24 07:33:27;;;;;;;;;;;;;;;14.98;54.06;100336.63;4426546;32;19958;-69
2022/04/24 07:35:53;;;;;;;;;;;;;;;15.11;53.71;100336.41;4420667;32;19968;-69
2022/04/24 07:38:19;;;;;;;;;;;;;;;15.20;52.69;100342.03;4416967;32;19949;-69
2022/04/24 07:40:44;;;;;;;;;;;;;;;15.62;52.77;100348.44;4419123;32;20010;-69
2022/04/24 07:43:11;;;;;;;;;;;;;;;15.85;51.71;100354.12;4420164;32;20026;-69
2022/04/24 07:45:38;;;;;;;;;;;;;;;16.36;49.91;100361.56;4416944;32;20292;-69
2022/04/24 07:48:05;;;;;;;;;;;;;;;15.96;50.90;100362.06;4420209;32;19957;-69
2022/04/24 07:50:33;;;;;;;;;;;;;;;16.07;51.43;100367.97;4421070;32;19975;-69
2022/04/24 07:53:00;;;;;;;;;;;;;;;16.38;50.31;100368.31;4419353;32;19957;-69
2022/04/24 07:55:26;;;;;;;;;;;;;;;16.68;49.29;100372.00;4421556;32;19953;-69
2022/04/24 07:57:53;;;;;;;;;;;;;;;16.40;49.36;100371.47;4418534;32;20036;-69
2022/04/24 08:00:21;;;;;;;;;;;;;;;16.50;49.44;100381.50;4419086;32;20012;-69
2022/04/24 08:07:59;;;;;;;;;;;;;;;16.60;49.81;100377.28;3945194;32;15728536;-69
2022/04/24 08:10:26;;;;;;;;;;;;;;;16.60;49.81;100377.28;4419537;32;19980;-69
2022/04/24 08:12:52;;;;;;;;;;;;;;;16.24;50.33;100374.78;4421759;32;19958;-69
2022/04/24 08:15:17;;;;;;;;;;;;;;;16.52;49.33;100381.81;4419423;32;19963;-69
2022/04/24 08:17:43;;;;;;;;;;;;;;;16.55;49.57;100371.50;4421240;32;20449;-69
2022/04/24 08:20:09;;;;;;;;;;;;;;;17.02;48.81;100374.16;4422122;32;20011;-69
2022/04/24 08:22:43;;;;;;;;;;;;;;;16.75;49.10;100374.47;4418577;32;20221;-69
2022/04/24 08:25:09;;;;;;;;;;;;;;;16.35;50.18;100369.31;4424321;32;19981;-69
2022/04/24 08:27:35;;;;;;;;;;;;;;;16.81;49.35;100376.13;4421932;32;19961;-69
2022/04/24 08:30:01;;;;;;;;;;;;;;;17.09;48.70;100374.53;4420284;32;19950;-69
2022/04/24 08:32:27;;;;;;;;;;;;;;;17.13;48.64;100382.87;4418843;32;19954;-69
2022/04/24 08:34:53;;;;;;;;;;;;;;;17.28;48.02;100375.13;4419828;32;20028;-69
2022/04/24 08:37:18;;;;;;;;;;;;;;;16.99;48.75;100367.41;4422464;32;19950;-69
2022/04/24 08:39:44;;;;;;;;;;;;;;;16.86;48.70;100378.28;4423258;32;19993;-69
2022/04/24 08:42:09;;;;;;;;;;;;;;;17.10;48.86;100373.28;4421022;32;19966;-69
2022/04/24 08:44:36;;;;;;;;;;;;;;;17.37;47.80;100369.31;4421569;32;20047;-69
2022/04/24 08:47:03;;;;;;;;;;;;;;;17.92;45.87;100375.81;4423097;32;19981;-69
2022/04/24 08:49:31;;;;;;;;;;;;;;;18.29;45.37;100382.50;4424461;32;19953;-69
2022/04/24 08:51:59;;;;;;;;;;;;;;;18.95;43.82;100385.28;4423935;32;20434;-69
2022/04/24 08:54:27;;;;;;;;;;;;;;;19.37;42.81;100379.69;4425555;32;20291;-69
2022/04/24 08:56:56;;;;;;;;;;;;;;;19.38;41.97;100381.25;4421103;32;20002;-69
2022/04/24 08:59:22;;;;;;;;;;;;;;;19.56;41.05;100381.66;4424451;32;20001;-69
2022/04/24 09:01:48;;;;;;;;;;;;;;;19.99;40.72;100378.75;4418940;32;20026;-69
2022/04/24 09:04:14;;;;;;;;;;;;;;;19.76;40.70;100392.16;4421556;32;19954;-69
2022/04/24 09:06:40;;;;;;;;;;;;;;;19.97;39.23;100384.22;4421821;32;19968;-69
2022/04/24 09:09:06;;;;;;;;;;;;;;;20.13;38.93;100383.53;4422374;32;19964;-69
2022/04/24 09:11:32;;;;;;;;;;;;;;;20.17;38.76;100381.22;4418731;32;19976;-69
2022/04/24 09:14:30;;;;;;;;;;;;;;;20.15;39.02;100387.44;4424330;32;20316;-69
2022/04/24 09:16:48;;;;;;;;;;;;;;;19.98;38.59;100385.78;4422141;32;19949;-69
2022/04/24 09:19:29;;;;;;;;;;;;;;;20.08;37.68;100387.13;4411236;32;19993;-69
2022/04/24 09:22:01;;;;;;;;;;;;;;;20.44;37.05;100389.91;4408888;32;20001;-69
2022/04/24 09:24:38;;;;;;;;;;;;;;;20.54;36.78;100399.00;4409883;32;20628;-69
2022/04/24 09:27:04;;;;;;;;;;;;;;;20.12;37.01;100390.53;4411240;32;19966;-70
2022/04/24 09:29:29;;;;;;;;;;;;;;;20.36;36.97;100399.47;4414567;32;20214;-69
2022/04/24 09:31:55;;;;;;;;;;;;;;;20.32;36.15;100393.22;4395750;32;20529;-70
2022/04/24 09:34:21;;;;;;;;;;;;;;;19.72;37.12;100400.94;4412986;32;20256;-69
2022/04/24 09:36:57;;;;;;;;;;;;;;;19.75;36.67;100387.72;4413468;32;19993;-69
2022/04/24 09:39:31;;;;;;;;;;;;;;;19.83;36.91;100393.75;4413140;32;19954;-70
2022/04/24 09:42:02;;;;;;;;;;;;;;;19.97;36.75;100387.06;4410389;32;20000;-69
2022/04/24 09:44:35;;;;;;;;;;;;;;;20.44;35.97;100400.53;4413001;32;21110;-69
2022/04/24 09:47:00;;;;;;;;;;;;;;;20.54;35.58;100390.44;4410765;32;19961;-69
2022/04/24 09:49:26;;;;;;;;;;;;;;;20.15;35.76;100395.25;4410471;32;20024;-69
2022/04/24 09:51:52;;;;;;;;;;;;;;;20.48;35.17;100412.50;4406380;32;19997;-70
2022/04/24 09:54:18;;;;;;;;;;;;;;;20.85;34.30;100396.75;4410484;32;20609;-69
2022/04/24 09:56:44;;;;;;;;;;;;;;;20.90;33.54;100381.66;4398957;32;19991;-69
2022/04/24 09:59:11;;;;;;;;;;;;;;;20.99;33.37;100397.84;4407619;32;20037;-69
2022/04/24 10:01:38;;;;;;;;;;;;;;;20.53;34.38;100386.81;4407331;32;20001;-69
2022/04/24 10:04:04;;;;;;;;;;;;;;;20.57;34.63;100387.34;4408955;32;19970;-69
2022/04/24 10:06:31;;;;;;;;;;;;;;;20.67;34.30;100394.38;4409939;32;20008;-69
2022/04/24 10:08:59;;;;;;;;;;;;;;;20.65;33.83;100402.66;4408061;32;19965;-69
2022/04/24 10:11:25;;;;;;;;;;;;;;;20.98;33.21;100399.91;4407021;32;20052;-69
2022/04/24 10:13:53;;;;;;;;;;;;;;;20.73;33.83;100403.75;4405961;32;19954;-70
2022/04/24 10:16:38;;;;;;;;;;;;;;;20.62;34.31;100400.84;4412307;32;19962;-70
2022/04/24 10:19:12;;;;;;;;;;;;;;;20.63;33.98;100399.56;4407779;32;20001;-70
2022/04/24 10:24:16;;;;;;;;;;;;;;;20.86;32.48;100404.00;3961248;31;15717773;-70
2022/04/24 10:26:57;;;;;;;;;;;;;;;20.86;32.48;100404.00;4439789;32;20378;-69
2022/04/24 10:29:24;;;;;;;;;;;;;;;20.55;32.34;100407.06;4440889;32;19957;-69
2022/04/24 10:31:50;;;;;;;;;;;;;;;20.18;32.11;100412.12;4437121;32;20008;-69
2022/04/24 10:34:16;;;;;;;;;;;;;;;20.32;31.72;100408.31;4439493;32;19992;-69
2022/04/24 10:36:58;;;;;;;;;;;;;;;20.60;31.58;100406.31;4441399;32;20901;-69
2022/04/24 10:39:27;;;;;;;;;;;;;;;20.83;31.41;100402.19;4439845;32;19990;-69
2022/04/24 10:41:54;;;;;;;;;;;;;;;20.75;31.39;100406.87;4436247;32;20034;-69
2022/04/24 10:44:19;;;;;;;;;;;;;;;20.67;31.21;100413.59;4441045;32;19953;-69
2022/04/24 10:46:47;;;;;;;;;;;;;;;20.45;31.82;100402.87;4440895;32;20735;-69
2022/04/24 10:49:13;;;;;;;;;;;;;;;20.35;32.21;100407.28;4440019;32;20279;-69
2022/04/24 10:51:40;;;;;;;;;;;;;;;20.17;32.97;100402.00;4439409;32;20231;-69
2022/04/24 10:54:08;;;;;;;;;;;;;;;20.20;33.00;100405.91;4439054;32;20077;-69
2022/04/24 10:56:35;;;;;;;;;;;;;;;20.52;32.06;100408.09;4436624;32;19968;-69
2022/04/24 10:59:08;;;;;;;;;;;;;;;20.39;32.00;100407.00;4439101;32;20361;-69
2022/04/24 11:01:35;;;;;;;;;;;;;;;20.15;32.13;100409.53;4438972;32;20216;-69
2022/04/24 11:04:05;;;;;;;;;;;;;;;21.01;31.70;100407.44;4438511;32;20004;-69
2022/04/24 11:06:30;;;;;;;;;;;;;;;21.81;30.70;100407.72;4438069;32;20765;-69
2022/04/24 11:09:04;;;;;;;;;;;;;;;22.52;29.48;100395.22;4438498;32;19996;-70
2022/04/24 11:11:31;;;;;;;;;;;;;;;23.23;28.21;100405.44;4437256;32;21155;-69
2022/04/24 11:13:59;;;;;;;;;;;;;;;23.28;27.50;100396.78;4437480;32;19976;-70
2022/04/24 11:16:24;;;;;;;;;;;;;;;23.42;27.36;100407.13;4436607;32;20008;-69
2022/04/24 11:18:51;;;;;;;;;;;;;;;23.48;26.93;100413.56;4435636;32;19997;-70
2022/04/24 11:21:19;;;;;;;;;;;;;;;22.91;27.52;100404.34;4437135;32;19963;-70
2022/04/24 11:23:45;;;;;;;;;;;;;;;22.66;27.76;100414.94;4437411;32;20001;-69
2022/04/24 11:26:12;;;;;;;;;;;;;;;22.75;27.74;100408.12;4437120;32;19961;-69
2022/04/24 11:28:40;;;;;;;;;;;;;;;22.90;27.88;100394.97;4436792;32;20029;-69
2022/04/24 11:31:08;;;;;;;;;;;;;;;23.02;27.82;100407.16;4438610;32;19968;-69
2022/04/24 11:33:35;;;;;;;;;;;;;;;23.07;27.38;100398.50;4434437;32;19972;-69
2022/04/24 11:36:04;;;;;;;;;;;;;;;23.15;27.41;100410.19;4427898;32;20374;-69
2022/04/24 11:38:31;;;;;;;;;;;;;;;23.81;26.59;100405.97;4427172;32;20024;-69
2022/04/24 11:40:58;;;;;;;;;;;;;;;25.38;25.07;100400.72;4427177;32;19945;-70
2022/04/24 11:43:24;;;;;;;;;;;;;;;26.27;23.95;100405.63;4426160;32;20104;-70
2022/04/24 11:51:22;;;;;;;;;;;;;;;27.68;21.81;100409.97;4425272;32;19949;-69
2022/04/24 11:53:48;;;;;;;;;;;;;;;27.96;21.64;100410.03;4426432;32;19956;-70
2022/04/24 11:56:16;;;;;;;;;;;;;;;27.71;21.61;100408.84;4428005;32;19992;-70
2022/04/24 11:58:44;;;;;;;;;;;;;;;26.76;22.39;100405.91;4426519;32;19957;-70
2022/04/24 12:01:13;;;;;;;;;;;;;;;26.01;23.26;100413.53;4424318;32;20001;-70
2022/04/24 12:03:43;;;;;;;;;;;;;;;25.89;23.67;100412.16;4426549;32;20005;-70
2022/04/24 12:06:13;;;;;;;;;;;;;;;25.32;23.91;100420.19;4426802;32;20004;-70
2022/04/24 12:08:39;;;;;;;;;;;;;;;24.78;24.38;100419.72;4428261;32;20158;-70
2022/04/24 12:11:05;;;;;;;;;;;;;;;24.41;25.11;100419.66;4427366;32;19942;-70
2022/04/24 12:13:32;;;;;;;;;;;;;;;23.82;25.69;100416.94;4426206;32;20056;-70
2022/04/24 12:15:58;;;;;;;;;;;;;;;23.54;26.04;100422.16;4425606;32;19957;-70
2022/04/24 12:18:25;;;;;;;;;;;;;;;23.81;25.75;100424.00;4424595;32;19997;-70
2022/04/24 12:20:51;;;;;;;;;;;;;;;23.89;25.58;100424.16;4424920;32;20459;-70
2022/04/24 12:23:17;;;;;;;;;;;;;;;23.85;25.78;100421.59;4426535;32;20073;-70
2022/04/24 12:25:53;;;;;;;;;;;;;;;24.10;25.31;100413.75;4424680;32;20357;-70
2022/04/24 12:28:35;;;;;;;;;;;;;;;24.65;24.92;100413.09;4425510;32;19997;-70
2022/04/24 12:31:01;;;;;;;;;;;;;;;24.10;25.51;100411.69;4425662;32;20337;-69
2022/04/24 12:33:28;;;;;;;;;;;;;;;24.60;24.77;100420.44;4424855;32;20117;-70
2022/04/24 12:35:55;;;;;;;;;;;;;;;25.39;23.72;100418.78;4424626;32;19953;-70
2022/04/24 12:38:22;;;;;;;;;;;;;;;26.59;22.33;100414.91;4426170;32;20015;-70
2022/04/24 12:41:07;;;;;;;;;;;;;;;27.04;21.74;100403.94;4427996;32;20020;-70
2022/04/24 12:43:33;;;;;;;;;;;;;;;27.11;22.29;100414.78;4426099;32;20004;-70
2022/04/24 12:45:59;;;;;;;;;;;;;;;27.26;22.54;100413.41;4427050;32;20381;-70
2022/04/24 12:48:24;;;;;;;;;;;;;;;27.46;22.59;100419.22;4427912;32;20379;-70